Flight Track Log - Related Links

Times and Time Zones

All times are in EDT time to prevent confusion due to time zone crossing. See the SKW4664 flight status page for this flight to view local times or setup timezone preferences in your user account.

Time Position Orientation Groundspeed Altitude Reporting Facility
EDT Latitude Longitude Course Direction KTS MPH feet Rate Location/Type
Wed 12:07:26 PM 43.6858 -96.6167 51° Northeast 244 281 23,000  Level Minneapolis Center
Wed 12:08:27 PM 43.7286 -96.5364 54° Northeast 266 306 23,000  Level Minneapolis Center
Wed 12:09:29 PM 43.7808 -96.4375 54° Northeast 310 357 23,000 -4,195 Level Minneapolis Center
Wed 12:10:00 PM 44.0298 -95.9134 52° Northeast  Level FlightAware Approximate
Wed 12:10:30 PM 43.8314 -96.3556 49° Northeast 298 343 14,400  Level Minneapolis Center
Wed 12:11:32 PM 43.8853 -96.2506 55° Northeast 332 382 16,100 1,355 Climbing Minneapolis Center
Wed 12:12:34 PM 43.9575 -96.1075 55° Northeast 367 422 17,200 927 Climbing Minneapolis Center
Wed 12:13:35 PM 44.0239 -95.9844 53° Northeast 394 453 18,000 1,122 Climbing Minneapolis Center
Wed 12:14:37 PM 44.0897 -95.8589 54° Northeast 400 460 19,500 1,113 Climbing Minneapolis Center
Wed 12:15:39 PM 44.1475 -95.7253 59° Northeast 402 463 20,300 829 Climbing Minneapolis Center
Wed 12:16:40 PM 44.1969 -95.5778 65° Northeast 412 474 21,200 829 Climbing Minneapolis Center
Wed 12:17:42 PM 44.2483 -95.4289 64° Northeast 421 484 22,000 629 Climbing Minneapolis Center
Wed 12:18:44 PM 44.2997 -95.2753 65° Northeast 433 498 22,500 484 Climbing Minneapolis Center
Wed 12:19:46 PM 44.3689 -95.0831 63° Northeast 458 527 23,000 244 Climbing Minneapolis Center
Wed 12:20:47 PM 44.4278 -94.9144 64° Northeast 474 545 23,000 -1,268 Level Minneapolis Center
Wed 12:21:49 PM 44.4881 -94.7397 64° Northeast 493 567 20,400 -2,419 Descending Minneapolis Center
Wed 12:22:51 PM 44.5492 -94.5722 63° Northeast 491 565 18,000 -2,537 Descending Minneapolis Center
Wed 12:23:52 PM 44.6058 -94.4128 63° Northeast 462 532 15,200 -2,683 Descending Minneapolis Center
Wed 12:24:54 PM 44.6578 -94.2642 64° Northeast 426 490 12,500 -1,984 Descending Minneapolis Center
Wed 12:25:56 PM 44.6992 -94.1319 66° East 372 428 11,100 -683 Descending Minneapolis Center
Wed 12:26:57 PM 44.7347 -93.9681 73° East 367 422 11,100  Level Minneapolis Center
Wed 12:27:59 PM 44.7656 -93.8311 72° East 367 422 11,100  Level Minneapolis Center
Wed 12:29:01 PM 44.7964 -93.6950 72° East 366 421 11,100 -195 Level Minneapolis Center
Wed 12:30:02 PM 44.8264 -93.5569 73° East 369 425 10,700 -780 Descending Minneapolis Center
Wed 12:31:04 PM 44.8522 -93.4425 72° East 300 345 9,500 -1,258 Descending Minneapolis Center
Wed 12:32:06 PM 44.8331 -93.3450 105° East 274 315 8,100 -732 Descending Minneapolis Center
Wed 12:33:07 PM 44.7836 -93.2586 129° Southeast 281 323 8,000 -1,122 Descending Minneapolis Center
Wed 12:34:09 PM 44.7328 -93.1678 128° Southeast 275 316 5,800 -1,887 Descending Minneapolis Center
Wed 12:35:11 PM 44.7222 -93.0661 98° East 263 303 4,100 -976 Descending Minneapolis Center
Wed 12:36:12 PM 44.7492 -93.0056 58° Northeast 187 215 3,800 -488 Descending Minneapolis Center
Wed 12:37:14 PM 44.7950 -93.0186 349° North 151 174 3,100 -336 Descending Minneapolis Center
Wed 12:38:17 PM 44.8164 -93.0706 300° West 154 177 3,100  Level Minneapolis Center

Login

Don't have an account? Register now (free) for customized features, flight alerts, and more!